Time;durP1;ratioP1;P1;durP2;ratioP2;P2;SDS_P1;SDS_P2;PMS_P1;PMS_P2;Temp;Humidity;BMP_temperature;BMP_pressure;BME280_temperature;BME280_humidity;BME280_pressure;Samples;Min_cycle;Max_cycle;Signal;HPM_P1;HPM_P2
2022/04/03 00:00:45;;;;;;;20.40;15.47;;;;;;;0.18;91.15;99228.20;1449730;87;22042;-82
2022/04/03 00:03:11;;;;;;;20.17;13.77;;;;;;;0.17;91.67;99242.99;1487287;87;21421;-81
2022/04/03 00:05:43;;;;;;;19.80;14.53;;;;;;;0.07;92.76;99228.14;1474104;87;23182;-83
2022/04/03 00:08:09;;;;;;;18.87;14.13;;;;;;;0.11;93.35;99233.47;1464334;87;21629;-82
2022/04/03 00:10:36;;;;;;;24.10;17.87;;;;;;;0.12;93.67;99229.95;1464292;89;21535;-81
2022/04/03 00:13:04;;;;;;;25.20;18.93;;;;;;;0.10;93.70;99226.14;1472936;87;21623;-81
2022/04/03 00:15:30;;;;;;;22.87;17.10;;;;;;;0.09;94.09;99234.08;1473981;87;21598;-83
2022/04/03 00:17:56;;;;;;;19.23;15.13;;;;;;;-0.01;94.75;99233.41;1483055;87;22799;-82
2022/04/03 00:20:22;;;;;;;22.53;15.40;;;;;;;0.00;95.29;99236.87;1475509;87;22313;-82
2022/04/03 00:22:49;;;;;;;22.20;15.53;;;;;;;0.02;95.59;99234.14;1475480;86;21510;-81
2022/04/03 00:25:18;;;;;;;22.13;15.23;;;;;;;0.07;95.52;99232.05;1468388;88;21649;-81
2022/04/03 00:27:46;;;;;;;23.27;16.33;;;;;;;0.02;96.03;99234.97;1481889;87;21706;-82
2022/04/03 00:30:13;;;;;;;27.07;17.07;;;;;;;0.02;96.63;99238.05;1484064;87;21614;-83
2022/04/03 00:32:40;;;;;;;21.37;15.47;;;;;;;0.07;96.37;99235.95;1465498;87;21644;-82
2022/04/03 00:35:07;;;;;;;23.07;15.83;;;;;;;0.04;96.95;99238.77;1461319;89;22125;-81
2022/04/03 00:37:33;;;;;;;23.33;17.63;;;;;;;-0.03;97.48;99238.36;1464615;88;23244;-82
2022/04/03 00:39:59;;;;;;;21.40;16.43;;;;;;;-0.02;97.82;99238.73;1461776;89;22535;-81
2022/04/03 00:42:26;;;;;;;22.87;17.60;;;;;;;-0.05;98.19;99246.28;1464985;89;21601;-81
2022/04/03 00:44:52;;;;;;;22.13;16.27;;;;;;;0.04;98.04;99241.38;1479806;87;21559;-82
2022/04/03 00:47:20;;;;;;;22.67;16.30;;;;;;;0.01;98.23;99238.99;1480037;87;21810;-82
2022/04/03 00:49:47;;;;;;;30.30;17.17;;;;;;;0.07;98.04;99245.05;1476952;87;21381;-82
2022/04/03 00:52:13;;;;;;;23.17;18.03;;;;;;;0.01;98.61;99246.80;1484195;87;21705;-82
2022/04/03 00:54:39;;;;;;;23.40;16.37;;;;;;;-0.03;99.29;99245.72;1486698;87;23767;-82
2022/04/03 00:57:07;;;;;;;24.17;17.43;;;;;;;-0.03;99.27;99244.41;1487888;87;22717;-82
2022/04/03 00:59:35;;;;;;;20.07;13.83;;;;;;;0.01;99.30;99245.50;1484594;87;21448;-82
2022/04/03 01:02:02;;;;;;;23.03;17.33;;;;;;;-0.01;99.42;99249.49;1487058;87;21553;-82
2022/04/03 01:04:29;;;;;;;24.30;17.73;;;;;;;0.04;99.43;99253.91;1475162;87;21822;-81
2022/04/03 01:06:57;;;;;;;21.83;16.13;;;;;;;0.03;99.37;99253.55;1467213;88;22449;-81
2022/04/03 01:09:23;;;;;;;21.30;14.77;;;;;;;0.08;99.57;99257.11;1461664;87;22165;-81
2022/04/03 01:11:49;;;;;;;21.00;15.73;;;;;;;0.08;99.22;99254.03;1480752;87;21612;-81
2022/04/03 01:14:39;;;;;;;21.50;14.20;;;;;;;0.17;98.73;99247.34;1486543;87;21629;-83
2022/04/03 01:17:07;;;;;;;16.13;11.90;;;;;;;0.10;99.03;99248.73;1485787;87;21707;-81
2022/04/03 01:19:33;;;;;;;20.50;16.10;;;;;;;0.07;99.31;99252.86;1489942;87;21580;-81
2022/04/03 01:21:59;;;;;;;25.53;16.87;;;;;;;0.15;99.12;99249.24;1487681;87;21587;-81
2022/04/03 01:24:26;;;;;;;21.90;15.00;;;;;;;0.19;98.76;99258.00;1468589;86;21902;-82
2022/04/03 01:26:53;;;;;;;23.53;15.83;;;;;;;0.17;99.48;99253.84;1496752;86;21644;-82
2022/04/03 01:29:20;;;;;;;26.97;19.10;;;;;;;0.13;99.83;99255.02;1495197;86;22637;-81
2022/04/03 01:31:47;;;;;;;22.37;15.13;;;;;;;0.16;99.72;99258.70;1491617;86;21555;-81
2022/04/03 01:34:18;;;;;;;18.93;15.03;;;;;;;0.18;99.57;99251.63;1494508;86;22098;-81
2022/04/03 01:36:46;;;;;;;;;;;;;;;0.15;99.65;99259.66;1490344;87;21431;-82
2022/04/03 01:39:12;;;;;;;23.63;17.43;;;;;;;0.15;100.00;99254.45;1489923;87;20311;-82
2022/04/03 01:41:42;;;;;;;20.10;14.90;;;;;;;0.18;99.99;99249.02;1492595;86;22703;-81
2022/04/03 01:44:09;;;;;;;21.03;14.93;;;;;;;0.19;99.98;99254.57;1492090;86;21695;-81
2022/04/03 01:46:40;;;;;;;20.07;15.47;;;;;;;0.24;99.61;99250.35;1488493;86;22861;-81
2022/04/03 01:49:07;;;;;;;21.05;13.90;;;;;;;0.26;99.49;99252.34;1487400;86;21661;-81
2022/04/03 01:51:34;;;;;;;21.63;15.77;;;;;;;0.27;99.93;99256.16;1495620;86;21359;-81
2022/04/03 01:54:02;;;;;;;20.00;14.57;;;;;;;0.25;99.76;99253.30;1489965;86;21462;-81
2022/04/03 01:56:28;;;;;;;21.47;15.60;;;;;;;0.27;99.78;99257.94;1464176;86;22593;-81
2022/04/03 01:58:54;;;;;;;17.60;13.87;;;;;;;0.30;99.49;99258.53;1488645;87;22538;-81
2022/04/03 02:01:20;;;;;;;19.43;14.30;;;;;;;0.34;99.77;99263.87;1482783;86;21639;-81
2022/04/03 02:03:46;;;;;;;19.13;14.53;;;;;;;0.35;99.40;99262.13;1489030;86;23434;-81
2022/04/03 02:06:15;;;;;;;18.23;13.00;;;;;;;0.28;99.59;99260.41;1489898;86;21631;-81
2022/04/03 02:08:42;;;;;;;21.77;16.30;;;;;;;0.29;99.78;99260.80;1488772;86;21677;-82
2022/04/03 02:11:08;;;;;;;21.87;14.80;;;;;;;0.23;100.00;99262.50;1488979;86;21660;-81
2022/04/03 02:13:34;;;;;;;20.20;14.03;;;;;;;0.29;100.00;99262.09;1500270;86;23808;-80
2022/04/03 02:16:00;;;;;;;21.13;14.60;;;;;;;0.28;100.00;99263.02;1508886;86;21628;-80
2022/04/03 02:18:26;;;;;;;21.70;15.67;;;;;;;0.30;100.00;99258.53;1497057;86;22453;-80
2022/04/03 02:20:52;;;;;;;21.30;14.53;;;;;;;0.34;100.00;99261.73;1456714;88;21395;-81
2022/04/03 02:23:18;;;;;;;20.63;15.27;;;;;;;0.35;100.00;99266.85;1464734;88;21453;-80
2022/04/03 02:25:45;;;;;;;17.17;12.47;;;;;;;0.37;99.86;99267.55;1451819;87;21577;-80
2022/04/03 02:28:12;;;;;;;18.00;14.37;;;;;;;0.33;99.80;99271.33;1450922;87;21625;-80
2022/04/03 02:30:38;;;;;;;19.47;14.13;;;;;;;0.33;100.00;99270.02;1475269;88;22515;-80
2022/04/03 02:33:04;;;;;;;19.90;14.10;;;;;;;0.34;100.00;99267.77;1483926;88;21601;-80
2022/04/03 02:35:30;;;;;;;20.77;14.37;;;;;;;0.35;100.00;99272.05;1475117;88;21477;-80
2022/04/03 02:37:57;;;;;;;17.57;12.63;;;;;;;0.35;100.00;99271.23;1481307;88;21614;-80
2022/04/03 02:40:23;;;;;;;17.57;11.90;;;;;;;0.36;100.00;99271.58;1479394;88;21581;-81
2022/04/03 02:42:52;;;;;;;16.57;12.70;;;;;;;0.33;100.00;99284.34;1485201;87;21775;-81
2022/04/03 02:45:17;;;;;;;17.33;13.23;;;;;;;0.33;100.00;99279.14;1456464;89;21487;-81
2022/04/03 02:47:50;;;;;;;17.53;11.77;;;;;;;0.35;100.00;99285.07;1436705;91;21803;-81
2022/04/03 02:50:17;;;;;;;18.77;12.63;;;;;;;0.28;100.00;99288.21;1459881;89;21478;-81
2022/04/03 02:52:51;;;;;;;16.43;12.77;;;;;;;0.32;100.00;99287.89;1471529;87;22060;-81
2022/04/03 02:55:19;;;;;;;17.47;12.83;;;;;;;0.30;100.00;99285.86;1458883;89;21589;-81
2022/04/03 02:57:45;;;;;;;16.73;12.77;;;;;;;0.23;100.00;99288.53;1459903;88;21499;-81
2022/04/03 03:00:17;;;;;;;14.10;10.00;;;;;;;0.17;100.00;99284.63;1482584;88;21653;-81
2022/04/03 03:02:45;;;;;;;17.80;12.77;;;;;;;0.13;100.00;99284.94;1441136;89;21687;-81
2022/04/03 03:05:16;;;;;;;14.30;10.63;;;;;;;0.17;100.00;99283.77;1437707;91;22810;-81
2022/04/03 03:07:41;;;;;;;13.83;10.53;;;;;;;0.16;100.00;99284.72;1443179;89;21780;-81
2022/04/03 03:10:11;;;;;;;14.37;10.40;;;;;;;0.15;100.00;99288.27;1426804;91;21577;-81
2022/04/03 03:12:37;;;;;;;12.87;9.23;;;;;;;0.11;100.00;99289.41;1438665;91;21682;-81
2022/04/03 03:15:04;;;;;;;15.13;11.47;;;;;;;0.07;100.00;99290.58;1438677;89;22636;-79
2022/04/03 03:17:31;;;;;;;13.93;11.20;;;;;;;0.12;100.00;99298.42;1443076;89;21433;-81
2022/04/03 03:19:58;;;;;;;11.67;8.27;;;;;;;0.13;100.00;99300.55;1432762;90;21702;-80
2022/04/03 03:22:25;;;;;;;15.70;11.17;;;;;;;0.15;100.00;99298.68;1443444;89;21397;-80
2022/04/03 03:24:51;;;;;;;15.77;11.40;;;;;;;0.14;100.00;99299.59;1479729;87;21705;-81
2022/04/03 03:27:18;;;;;;;14.50;11.53;;;;;;;0.11;100.00;99302.42;1475906;87;21570;-81
2022/04/03 03:29:44;;;;;;;10.87;8.50;;;;;;;0.11;100.00;99302.42;1479798;86;21854;-81
2022/04/03 03:32:10;;;;;;;12.73;9.33;;;;;;;0.07;100.00;99300.98;1479200;87;21651;-81
2022/04/03 03:34:36;;;;;;;12.83;9.90;;;;;;;0.05;100.00;99312.79;1469944;88;22335;-81
2022/04/03 03:37:03;;;;;;;14.03;10.13;;;;;;;0.01;100.00;99315.26;1481064;88;21883;-81
2022/04/03 03:39:30;;;;;;;13.33;10.67;;;;;;;0.06;100.00;99309.71;1474786;87;21457;-81
2022/04/03 03:41:56;;;;;;;13.40;10.80;;;;;;;0.03;100.00;99313.39;1483049;88;21630;-81
2022/04/03 03:44:23;;;;;;;14.17;10.13;;;;;;;0.07;100.00;99317.90;1485765;86;21600;-81
2022/04/03 03:46:49;;;;;;;14.43;10.50;;;;;;;0.05;100.00;99321.06;1482634;88;22759;-81
2022/04/03 03:49:15;;;;;;;15.97;11.20;;;;;;;0.08;100.00;99319.55;1473797;88;21605;-81
2022/04/03 03:51:41;;;;;;;15.70;11.10;;;;;;;0.09;100.00;99326.44;1478528;88;22139;-82
2022/04/03 03:54:07;;;;;;;12.43;9.07;;;;;;;0.06;100.00;99320.13;1478415;88;21524;-81
2022/04/03 03:56:34;;;;;;;14.90;11.13;;;;;;;0.09;100.00;99334.24;1475275;87;21647;-82
2022/04/03 03:59:00;;;;;;;11.80;9.13;;;;;;;0.08;100.00;99329.48;1480839;88;21615;-82
2022/04/03 04:01:27;;;;;;;11.80;6.93;;;;;;;0.12;100.00;99336.63;1481126;87;21612;-82
2022/04/03 04:03:53;;;;;;;12.20;9.53;;;;;;;0.13;100.00;99336.98;1478370;88;22045;-82
2022/04/03 04:06:19;;;;;;;14.77;10.90;;;;;;;0.04;100.00;99342.36;1477974;88;23684;-81
2022/04/03 04:08:45;;;;;;;12.53;9.13;;;;;;;0.10;100.00;99347.60;1477788;88;21749;-82
2022/04/03 04:11:11;;;;;;;11.50;8.80;;;;;;;-0.01;100.00;99353.07;1479522;88;21354;-81
2022/04/03 04:13:37;;;;;;;14.23;10.23;;;;;;;0.06;100.00;99353.94;1474918;87;21355;-81
2022/04/03 04:16:04;;;;;;;11.13;9.37;;;;;;;0.08;100.00;99355.50;1487624;87;21818;-81
2022/04/03 04:18:30;;;;;;;16.10;10.83;;;;;;;0.10;100.00;99363.22;1471742;87;21378;-81
2022/04/03 04:20:57;;;;;;;12.93;9.87;;;;;;;0.11;100.00;99366.16;1464387;88;21544;-81
2022/04/03 04:23:23;;;;;;;12.50;8.83;;;;;;;0.12;100.00;99369.16;1479999;87;21451;-81
2022/04/03 04:25:49;;;;;;;11.40;9.37;;;;;;;0.02;100.00;99372.84;1483055;88;21400;-81
2022/04/03 04:28:17;;;;;;;11.43;8.60;;;;;;;0.07;100.00;99370.77;1475703;88;21852;-81
2022/04/03 04:30:43;;;;;;;13.40;10.73;;;;;;;0.13;100.00;99373.41;1484907;87;21492;-82
2022/04/03 04:33:09;;;;;;;11.87;9.57;;;;;;;0.13;100.00;99374.70;1482360;88;21473;-82
2022/04/03 04:35:36;;;;;;;8.53;6.67;;;;;;;0.09;100.00;99378.00;1478301;88;22688;-80
2022/04/03 04:38:03;;;;;;;10.50;8.10;;;;;;;0.06;100.00;99379.52;1477199;88;21578;-82
2022/04/03 04:40:30;;;;;;;11.43;9.43;;;;;;;0.06;100.00;99381.26;1475303;88;21725;-81
2022/04/03 04:42:56;;;;;;;11.40;8.43;;;;;;;0.07;100.00;99385.55;1487949;88;22483;-81
2022/04/03 04:45:22;;;;;;;10.83;8.27;;;;;;;0.12;100.00;99392.56;1471843;88;21759;-81
2022/04/03 04:47:48;;;;;;;9.93;7.23;;;;;;;0.12;100.00;99397.77;1474095;88;21485;-81
2022/04/03 04:50:15;;;;;;;9.80;7.33;;;;;;;0.12;100.00;99403.80;1480548;88;21527;-81
2022/04/03 04:52:42;;;;;;;12.33;9.00;;;;;;;0.10;100.00;99406.14;1477584;88;21678;-82
2022/04/03 04:55:09;;;;;;;7.13;6.33;;;;;;;0.12;100.00;99410.78;1473820;88;21555;-82
2022/04/03 04:57:37;;;;;;;9.00;6.67;;;;;;;0.12;100.00;99410.78;1478543;88;21622;-82
2022/04/03 05:00:07;;;;;;;6.70;5.53;;;;;;;0.05;100.00;99415.55;1476923;88;21513;-82
2022/04/03 05:02:33;;;;;;;8.10;5.97;;;;;;;0.04;100.00;99422.18;1476247;88;21629;-81
2022/04/03 05:04:59;;;;;;;8.67;6.20;;;;;;;0.03;100.00;99428.30;1482611;88;21681;-83
2022/04/03 05:07:26;;;;;;;8.20;6.37;;;;;;;0.08;100.00;99415.81;1478531;87;21499;-81
2022/04/03 05:09:52;;;;;;;7.33;5.17;;;;;;;0.14;100.00;99427.92;1476412;88;21461;-80
2022/04/03 05:12:20;;;;;;;8.30;5.87;;;;;;;0.09;100.00;99432.64;1474005;88;22313;-81
2022/04/03 05:14:48;;;;;;;9.13;6.90;;;;;;;0.16;100.00;99439.55;1489995;88;21832;-81
2022/04/03 05:17:14;;;;;;;6.17;4.77;;;;;;;0.14;100.00;99440.11;1481617;88;22502;-81
2022/04/03 05:19:41;;;;;;;5.77;4.73;;;;;;;0.15;100.00;99447.00;1483936;87;21562;-82
2022/04/03 05:22:07;;;;;;;7.67;5.73;;;;;;;0.19;100.00;99443.23;1448935;89;21599;-82
2022/04/03 05:24:33;;;;;;;5.37;4.43;;;;;;;0.18;100.00;99448.09;1466689;88;21459;-82
2022/04/03 05:26:59;;;;;;;5.80;4.77;;;;;;;0.19;100.00;99441.93;1483961;88;21392;-84
2022/04/03 05:29:25;;;;;;;6.10;4.33;;;;;;;0.20;100.00;99450.95;1479613;88;21577;-80
2022/04/03 05:31:51;;;;;;;6.33;4.40;;;;;;;0.24;100.00;99450.73;1485134;86;22550;-79
2022/04/03 05:34:17;;;;;;;6.97;5.30;;;;;;;0.22;100.00;99456.03;1478114;88;21479;-79
2022/04/03 05:36:43;;;;;;;8.03;6.07;;;;;;;0.26;100.00;99458.80;1471660;88;21333;-79
2022/04/03 05:39:09;;;;;;;5.43;4.70;;;;;;;0.30;100.00;99460.72;1478206;87;21411;-79
2022/04/03 05:41:36;;;;;;;7.17;5.50;;;;;;;0.23;99.59;99464.19;1468816;87;21465;-79
2022/04/03 05:44:03;;;;;;;8.33;6.20;;;;;;;0.28;99.60;99462.11;1484037;88;21559;-79
2022/04/03 05:46:29;;;;;;;11.23;7.00;;;;;;;0.26;99.79;99473.12;1471869;88;21524;-80
2022/04/03 05:48:55;;;;;;;11.10;5.87;;;;;;;0.30;99.40;99473.26;1461414;87;22640;-80
2022/04/03 05:51:21;;;;;;;12.80;7.67;;;;;;;0.34;99.45;99472.09;1457523;89;21652;-80
2022/04/03 05:53:47;;;;;;;9.90;6.17;;;;;;;0.28;98.78;99476.42;1461380;88;21340;-79
2022/04/03 05:56:13;;;;;;;9.27;6.13;;;;;;;0.24;97.79;99474.16;1461594;88;21422;-80
2022/04/03 05:58:38;;;;;;;9.90;7.97;;;;;;;0.26;97.76;99477.02;1482254;88;21362;-79
2022/04/03 06:01:04;;;;;;;11.43;7.80;;;;;;;0.30;98.50;99477.64;1474964;88;22588;-79
2022/04/03 06:03:31;;;;;;;11.27;8.07;;;;;;;0.31;98.04;99481.42;1458038;87;21362;-80
2022/04/03 06:05:57;;;;;;;11.53;8.53;;;;;;;0.26;98.49;99485.27;1467283;88;21580;-80
2022/04/03 06:08:23;;;;;;;12.13;8.67;;;;;;;0.26;99.74;99493.94;1478949;87;22460;-79
2022/04/03 06:10:49;;;;;;;9.90;6.73;;;;;;;0.23;99.89;99501.92;1462066;88;22357;-79
2022/04/03 06:13:15;;;;;;;9.87;7.07;;;;;;;0.20;100.00;99511.25;1482625;88;21647;-79
2022/04/03 06:15:45;;;;;;;15.47;10.17;;;;;;;0.13;100.00;99509.53;1477008;87;21455;-79
2022/04/03 06:18:16;;;;;;;13.93;8.77;;;;;;;0.16;100.00;99511.93;1456013;88;22369;-81
2022/04/03 06:20:42;;;;;;;;;;;;;;;0.15;100.00;99521.16;1457334;88;21455;-79
2022/04/03 06:23:18;;;;;;;14.10;10.17;;;;;;;0.07;100.00;99520.84;1454559;89;20290;-79
2022/04/03 06:25:46;;;;;;;14.43;10.63;;;;;;;0.07;100.00;99520.36;1461529;88;21595;-79
2022/04/03 06:28:12;;;;;;;11.23;8.27;;;;;;;0.08;100.00;99521.19;1458534;88;22535;-79
2022/04/03 06:30:40;;;;;;;14.20;8.17;;;;;;;0.06;100.00;99526.52;1462376;87;21580;-79
2022/04/03 06:33:06;;;;;;;14.47;9.50;;;;;;;0.05;100.00;99534.41;1484972;87;21472;-79
2022/04/03 06:35:32;;;;;;;11.77;8.80;;;;;;;0.09;100.00;99535.89;1460482;87;21579;-79
2022/04/03 06:37:58;;;;;;;13.40;10.50;;;;;;;0.16;100.00;99537.13;1466306;89;21596;-79
2022/04/03 06:40:24;;;;;;;11.07;7.43;;;;;;;0.15;100.00;99538.07;1456406;89;22469;-79
2022/04/03 06:42:51;;;;;;;14.53;9.80;;;;;;;0.16;100.00;99538.42;1463868;89;22056;-79
2022/04/03 06:45:18;;;;;;;11.97;9.00;;;;;;;0.29;100.00;99543.18;1453366;89;21516;-79
2022/04/03 06:47:44;;;;;;;10.70;7.60;;;;;;;0.36;100.00;99545.72;1459478;89;21688;-79
2022/04/03 06:50:11;;;;;;;15.50;11.10;;;;;;;0.31;100.00;99549.56;1457578;87;21635;-79
2022/04/03 06:52:37;;;;;;;13.33;10.47;;;;;;;0.41;100.00;99561.03;1464449;87;21462;-78
2022/04/03 06:55:06;;;;;;;10.97;8.43;;;;;;;0.54;100.00;99560.55;1464781;87;21562;-79
2022/04/03 06:57:32;;;;;;;14.17;8.90;;;;;;;0.57;100.00;99564.71;1481474;87;21626;-79
2022/04/03 06:59:58;;;;;;;11.07;6.63;;;;;;;0.72;100.00;99570.19;1492512;87;21497;-80
2022/04/03 07:02:24;;;;;;;10.77;7.67;;;;;;;0.65;99.94;99569.76;1483766;87;21576;-79
2022/04/03 07:04:50;;;;;;;13.87;9.57;;;;;;;0.74;100.00;99574.80;1478478;87;21675;-79
2022/04/03 07:07:24;;;;;;;16.90;10.27;;;;;;;0.86;100.00;99578.33;1420673;89;22670;-79
2022/04/03 07:09:52;;;;;;;12.33;8.37;;;;;;;0.80;99.15;99570.47;1460571;87;21356;-79
2022/04/03 07:12:20;;;;;;;14.80;8.87;;;;;;;0.83;98.30;99591.09;1455805;89;22554;-80
2022/04/03 07:14:46;;;;;;;11.37;7.83;;;;;;;0.87;98.62;99595.64;1469061;89;21582;-80
2022/04/03 07:17:12;;;;;;;10.03;7.93;;;;;;;0.92;97.08;99591.40;1466686;87;21363;-79
2022/04/03 07:19:38;;;;;;;10.97;8.43;;;;;;;0.99;96.44;99601.77;1452563;87;21414;-79
2022/04/03 07:22:13;;;;;;;13.43;8.27;;;;;;;1.02;95.97;99596.34;1454025;87;21392;-78
2022/04/03 07:24:34;;;;;;;10.17;7.87;;;;;;;1.03;95.93;99604.52;1470210;87;21790;-78
2022/04/03 07:27:00;;;;;;;18.77;9.63;;;;;;;1.10;96.27;99601.39;1482870;87;23538;-78
2022/04/03 07:29:26;;;;;;;13.30;8.93;;;;;;;1.21;96.07;99598.03;1458019;87;21747;-78
2022/04/03 07:31:53;;;;;;;12.33;8.60;;;;;;;1.30;94.89;99605.20;1482280;86;21385;-78
2022/04/03 07:34:20;;;;;;;17.80;9.73;;;;;;;1.32;91.27;99608.54;1463057;88;23689;-78
2022/04/03 07:36:47;;;;;;;14.90;11.20;;;;;;;1.25;89.77;99612.98;1460938;87;22504;-79
2022/04/03 07:39:15;;;;;;;15.10;10.10;;;;;;;1.47;91.62;99617.52;1461393;87;22558;-78
2022/04/03 07:41:41;;;;;;;17.33;10.10;;;;;;;1.74;88.08;99619.91;1469814;87;21574;-77
2022/04/03 07:44:09;;;;;;;11.97;8.93;;;;;;;1.74;88.08;99619.91;1478639;87;21725;-77
2022/04/03 07:46:36;;;;;;;14.63;10.53;;;;;;;1.81;86.21;99623.72;1468938;87;22607;-78
2022/04/03 07:49:04;;;;;;;13.23;8.33;;;;;;;1.88;85.14;99630.66;1457279;89;21699;-77
2022/04/03 07:51:31;;;;;;;15.63;10.77;;;;;;;1.86;81.69;99628.62;1484622;87;21771;-77
2022/04/03 07:53:57;;;;;;;13.63;9.83;;;;;;;1.93;80.76;99629.85;1459725;87;22930;-77
2022/04/03 07:56:24;;;;;;;13.33;8.47;;;;;;;2.06;82.43;99631.08;1479158;87;21763;-79
2022/04/03 07:58:50;;;;;;;18.40;10.03;;;;;;;2.06;81.34;99634.99;1467251;87;21669;-79
2022/04/03 08:01:16;;;;;;;15.40;10.23;;;;;;;2.23;78.45;99635.41;1487711;87;21811;-79
2022/04/03 08:03:42;;;;;;;16.17;11.10;;;;;;;2.23;78.45;99624.97;1465125;87;21947;-79
2022/04/03 08:06:13;;;;;;;15.43;10.67;;;;;;;2.30;79.13;99635.77;1470981;87;22059;-80
2022/04/03 08:08:48;;;;;;;16.55;10.13;;;;;;;2.42;80.38;99631.44;1484044;87;21886;-78
2022/04/03 08:11:14;;;;;;;14.23;10.13;;;;;;;2.61;75.66;99634.79;1479738;87;21302;-79
2022/04/03 08:13:43;;;;;;;14.20;9.10;;;;;;;2.58;74.10;99644.16;1461179;87;21517;-79
2022/04/03 08:16:09;;;;;;;13.60;8.23;;;;;;;2.56;71.81;99646.05;1457271;87;22103;-80
2022/04/03 08:18:57;;;;;;;14.30;7.63;;;;;;;2.69;72.52;99648.94;1463511;87;23550;-80
2022/04/03 08:21:23;;;;;;;20.27;9.63;;;;;;;2.95;70.05;99660.49;1476533;87;22084;-81
2022/04/03 08:23:49;;;;;;;12.27;8.30;;;;;;;2.95;70.05;99660.49;1484547;87;22046;-80
2022/04/03 08:26:17;;;;;;;15.63;9.70;;;;;;;2.96;68.92;99662.15;1478874;87;22054;-80
2022/04/03 08:28:43;;;;;;;12.30;8.23;;;;;;;2.91;68.49;99664.31;1478742;87;21256;-80
2022/04/03 08:31:09;;;;;;;12.47;9.40;;;;;;;2.97;68.39;99667.75;1479103;87;22253;-81
2022/04/03 08:33:35;;;;;;;11.47;8.20;;;;;;;3.03;69.53;99666.45;1486687;86;23057;-81
2022/04/03 08:36:03;;;;;;;19.20;10.70;;;;;;;3.18;68.15;99669.18;1467120;87;23146;-81
2022/04/03 08:38:29;;;;;;;13.57;8.47;;;;;;;3.24;65.20;99678.33;1477164;88;23032;-81
2022/04/03 08:40:55;;;;;;;22.77;9.13;;;;;;;3.33;66.39;99669.77;1466404;89;22099;-81
2022/04/03 08:43:22;;;;;;;12.43;6.57;;;;;;;3.30;63.62;99678.68;1464980;88;21382;-81
2022/04/03 08:45:48;;;;;;;12.53;7.70;;;;;;;3.14;60.86;99693.91;1459541;88;22932;-81
2022/04/03 08:48:19;;;;;;;13.90;7.87;;;;;;;2.91;60.98;99679.98;1463274;88;22090;-81
2022/04/03 08:50:48;;;;;;;14.28;9.38;;;;;;;2.99;62.94;99682.83;1441869;88;21488;-84
2022/04/03 08:53:14;;;;;;;16.27;8.20;;;;;;;2.97;63.33;99697.81;1514215;89;21423;-86
2022/04/03 08:55:40;;;;;;;17.60;7.57;;;;;;;2.94;63.12;99696.27;1494692;90;22038;-82
2022/04/03 08:58:06;;;;;;;12.93;7.93;;;;;;;2.88;61.39;99693.30;1387994;92;22897;-82
2022/04/03 09:00:33;;;;;;;11.03;7.63;;;;;;;3.13;64.87;99703.52;1358212;90;22011;-83
2022/04/03 09:03:00;;;;;;;13.53;8.23;;;;;;;3.21;61.47;99709.47;1388603;89;22832;-84
2022/04/03 09:05:41;;;;;;;15.60;7.90;;;;;;;3.32;63.27;99713.89;1369908;90;21986;-83
2022/04/03 09:08:08;;;;;;;;;;;;;;;3.44;63.99;99711.62;1554231;88;21981;-83
2022/04/03 09:10:35;;;;;;;12.83;7.30;;;;;;;3.48;61.90;99718.74;1464226;87;20405;-84
2022/04/03 09:13:01;;;;;;;11.53;8.20;;;;;;;3.52;60.75;99714.95;1444823;88;21288;-83
2022/04/03 09:15:29;;;;;;;14.67;8.63;;;;;;;3.68;62.87;99727.66;1527270;89;22153;-83
2022/04/03 09:17:59;;;;;;;15.70;6.77;;;;;;;3.79;63.01;99739.42;1386289;89;21222;-84
2022/04/03 09:20:30;;;;;;;11.27;7.77;;;;;;;3.84;60.84;99742.52;1496918;90;21405;-82
2022/04/03 09:22:59;;;;;;;;;;;;;;;4.05;61.20;99727.70;1505444;91;21377;-82
2022/04/03 09:25:32;;;;;;;9.63;6.03;;;;;;;3.78;54.71;99729.92;1376498;88;20217;-83
2022/04/03 09:28:05;;;;;;;10.27;6.67;;;;;;;3.88;56.66;99740.00;1411410;88;21428;-82
2022/04/03 09:30:39;;;;;;;14.63;7.97;;;;;;;4.01;59.25;99740.70;1474767;88;22826;-83
2022/04/03 09:33:08;;;;;;;12.07;8.00;;;;;;;3.91;57.20;99739.75;1449504;89;21466;-82
2022/04/03 09:36:02;;;;;;;12.53;6.70;;;;;;;3.94;57.91;99745.23;1448395;89;22339;-82
2022/04/03 09:38:32;;;;;;;10.10;6.60;;;;;;;3.99;57.01;99737.36;1453144;89;21288;-82
2022/04/03 09:40:59;;;;;;;9.87;5.93;;;;;;;3.92;57.52;99755.01;1501889;89;21260;-83
2022/04/03 09:43:30;;;;;;;10.07;5.87;;;;;;;3.81;54.87;99749.30;1386303;89;21259;-84
2022/04/03 09:46:02;;;;;;;11.78;6.72;;;;;;;3.79;55.58;99749.89;1540850;88;21340;-85
2022/04/03 09:48:39;;;;;;;15.07;7.73;;;;;;;3.94;57.09;99753.94;1435478;89;21282;-84
2022/04/03 09:51:11;;;;;;;12.17;6.80;;;;;;;4.03;55.46;99751.89;1461886;89;21953;-85
2022/04/03 09:53:51;;;;;;;10.17;5.73;;;;;;;4.10;56.12;99757.95;1457593;89;21389;-84
2022/04/03 09:56:37;;;;;;;13.20;6.67;;;;;;;4.12;55.60;99763.91;1466396;88;22372;-84
2022/04/03 09:59:03;;;;;;;;;;;;;;;4.28;56.54;99767.77;1472354;88;22522;-83
2022/04/03 10:01:42;;;;;;;6.92;4.60;;;;;;;4.29;55.33;99762.07;1481639;87;20344;-84
2022/04/03 10:04:08;;;;;;;10.17;6.67;;;;;;;4.35;55.03;99766.81;1459413;87;22302;-83
2022/04/03 10:06:35;;;;;;;12.13;6.10;;;;;;;4.50;55.20;99766.87;1455602;89;21370;-83
2022/04/03 10:09:03;;;;;;;12.07;6.07;;;;;;;4.57;54.16;99777.67;1454125;88;21651;-83
2022/04/03 10:11:29;;;;;;;8.37;4.80;;;;;;;4.60;52.98;99776.59;1455743;89;21413;-82
2022/04/03 10:13:56;;;;;;;8.77;3.77;;;;;;;4.81;52.43;99779.27;1457633;89;23271;-83
2022/04/03 10:16:23;;;;;;;6.07;4.33;;;;;;;4.65;49.73;99767.89;1457770;88;21451;-82
2022/04/03 10:18:52;;;;;;;8.17;4.30;;;;;;;4.67;49.59;99777.78;1464769;87;21524;-82
2022/04/03 10:21:44;;;;;;;7.90;4.87;;;;;;;4.73;49.51;99778.09;1471815;88;21368;-82
2022/04/03 10:24:16;;;;;;;7.37;4.67;;;;;;;4.77;50.96;99773.42;1474843;88;21396;-82
2022/04/03 10:26:59;;;;;;;8.53;4.30;;;;;;;5.00;52.71;99779.87;1458700;87;22229;-81
2022/04/03 10:29:27;;;;;;;7.07;4.27;;;;;;;5.03;49.20;99786.17;1457167;87;22397;-83
2022/04/03 10:32:03;;;;;;;5.40;3.77;;;;;;;4.97;48.45;99790.95;1463015;87;22404;-83
2022/04/03 10:34:29;;;;;;;6.20;4.43;;;;;;;4.79;48.43;99805.59;1465696;87;21814;-82
2022/04/03 10:36:57;;;;;;;6.03;3.93;;;;;;;4.65;48.15;99800.65;1465194;88;22393;-82
2022/04/03 10:39:26;;;;;;;8.93;4.30;;;;;;;4.90;50.76;99749.17;1516964;88;22097;-82
2022/04/03 10:42:20;;;;;;;9.43;3.90;;;;;;;4.57;46.36;99808.30;1509779;88;21365;-81
2022/04/03 10:45:12;;;;;;;6.07;3.10;;;;;;;4.56;47.97;99822.37;1550874;88;21470;-82
2022/04/03 10:47:45;;;;;;;6.80;3.70;;;;;;;4.44;47.68;99834.19;1498867;89;21331;-82
2022/04/03 10:50:13;;;;;;;8.10;4.77;;;;;;;4.32;48.59;99807.66;1436464;89;21949;-84
2022/04/03 10:52:44;;;;;;;8.20;4.30;;;;;;;4.72;51.90;99818.87;1378022;89;21272;-83
2022/04/03 10:55:21;;;;;;;7.03;3.57;;;;;;;4.85;49.10;99816.06;1536275;89;21390;-82
2022/04/03 10:57:53;;;;;;;10.03;5.03;;;;;;;4.80;47.50;99827.40;1527842;89;21316;-83
2022/04/03 11:00:27;;;;;;;4.90;3.20;;;;;;;4.84;49.56;99824.41;1509817;87;21254;-83
2022/04/03 11:03:02;;;;;;;6.60;4.43;;;;;;;4.94;47.35;99821.38;1505010;88;22384;-83
2022/04/03 11:05:33;;;;;;;6.20;3.50;;;;;;;5.14;50.63;99828.08;1463808;88;21919;-82
2022/04/03 11:08:07;;;;;;;7.80;3.77;;;;;;;5.15;46.83;99819.24;1467680;88;21432;-80
2022/04/03 11:10:55;;;;;;;7.50;4.20;;;;;;;5.20;48.39;99828.88;1466094;88;21433;-81
2022/04/03 11:13:36;;;;;;;8.73;5.70;;;;;;;5.42;50.23;99825.30;1468247;88;21396;-82
2022/04/03 11:16:12;;;;;;;5.77;3.90;;;;;;;5.41;48.25;99844.16;1467316;88;21432;-81
2022/04/03 11:18:48;;;;;;;7.23;4.23;;;;;;;5.25;46.04;99856.88;1445933;90;21434;-83
2022/04/03 11:21:30;;;;;;;8.77;4.73;;;;;;;5.28;47.28;99844.82;1440927;90;21456;-84
2022/04/03 11:24:04;;;;;;;5.83;3.17;;;;;;;5.31;48.35;99848.50;1383195;92;22828;-83
2022/04/03 11:26:30;;;;;;;6.43;4.13;;;;;;;5.34;45.48;99850.86;1336163;94;22792;-83
2022/04/03 11:28:57;;;;;;;7.93;4.43;;;;;;;5.55;48.61;99850.02;1440221;90;21397;-84
2022/04/03 11:31:26;;;;;;;8.83;3.87;;;;;;;5.51;47.25;99840.75;1424685;88;21405;-83
2022/04/03 11:33:52;;;;;;;5.00;3.40;;;;;;;5.53;47.54;99851.97;1575711;86;21242;-83